sensor_id;sensor_type;location;lat;lon;timestamp;pressure;altitude;pressure_sealevel;temperature;humidity
18145;BME280;14857;41.200;-8.326;2022-08-21T00:02:22;100249.81;;;19.65;100.00
18145;BME280;14857;41.200;-8.326;2022-08-21T00:04:53;100304.00;;;19.96;100.00
18145;BME280;14857;41.200;-8.326;2022-08-21T00:07:24;100308.63;;;19.94;100.00
18145;BME280;14857;41.200;-8.326;2022-08-21T00:09:53;100273.22;;;19.69;100.00
18145;BME280;14857;41.200;-8.326;2022-08-21T00:12:22;100246.13;;;19.50;100.00
18145;BME280;14857;41.200;-8.326;2022-08-21T00:14:50;100283.00;;;19.69;100.00
18145;BME280;14857;41.200;-8.326;2022-08-21T00:17:25;100319.41;;;19.92;100.00
18145;BME280;14857;41.200;-8.326;2022-08-21T00:19:54;100271.88;;;19.57;100.00
18145;BME280;14857;41.200;-8.326;2022-08-21T00:22:22;100260.38;;;19.49;100.00
18145;BME280;14857;41.200;-8.326;2022-08-21T00:24:51;100267.69;;;19.47;100.00
18145;BME280;14857;41.200;-8.326;2022-08-21T00:27:20;100269.34;;;19.48;100.00
18145;BME280;14857;41.200;-8.326;2022-08-21T00:29:49;100299.25;;;19.66;100.00
18145;BME280;14857;41.200;-8.326;2022-08-21T00:32:20;100263.97;;;19.39;100.00
18145;BME280;14857;41.200;-8.326;2022-08-21T00:34:51;100313.44;;;19.49;100.00
18145;BME280;14857;41.200;-8.326;2022-08-21T00:37:20;100310.22;;;19.37;100.00
18145;BME280;14857;41.200;-8.326;2022-08-21T00:39:49;100317.94;;;19.22;100.00
18145;BME280;14857;41.200;-8.326;2022-08-21T00:42:39;100276.97;;;18.91;100.00
18145;BME280;14857;41.200;-8.326;2022-08-21T00:45:52;100308.97;;;18.98;100.00
18145;BME280;14857;41.200;-8.326;2022-08-21T00:49:06;100314.59;;;18.95;100.00
18145;BME280;14857;41.200;-8.326;2022-08-21T00:51:47;100314.38;;;18.88;100.00
18145;BME280;14857;41.200;-8.326;2022-08-21T00:54:19;100309.59;;;18.92;100.00
18145;BME280;14857;41.200;-8.326;2022-08-21T00:56:53;100264.56;;;18.66;100.00
18145;BME280;14857;41.200;-8.326;2022-08-21T00:59:26;100306.81;;;18.93;100.00
18145;BME280;14857;41.200;-8.326;2022-08-21T01:01:56;100265.53;;;18.65;100.00
18145;BME280;14857;41.200;-8.326;2022-08-21T01:04:25;100303.16;;;18.94;100.00
18145;BME280;14857;41.200;-8.326;2022-08-21T01:06:55;100261.16;;;18.56;100.00
18145;BME280;14857;41.200;-8.326;2022-08-21T01:09:24;100257.84;;;18.54;100.00
18145;BME280;14857;41.200;-8.326;2022-08-21T01:11:53;100259.50;;;18.55;100.00
18145;BME280;14857;41.200;-8.326;2022-08-21T01:14:22;100275.47;;;18.63;100.00
18145;BME280;14857;41.200;-8.326;2022-08-21T01:16:52;100264.44;;;18.50;100.00
18145;BME280;14857;41.200;-8.326;2022-08-21T01:19:21;100227.34;;;18.32;100.00
18145;BME280;14857;41.200;-8.326;2022-08-21T01:21:52;100302.44;;;18.84;100.00
18145;BME280;14857;41.200;-8.326;2022-08-21T01:24:22;100299.94;;;18.82;100.00
18145;BME280;14857;41.200;-8.326;2022-08-21T01:26:51;100302.13;;;18.87;100.00
18145;BME280;14857;41.200;-8.326;2022-08-21T01:29:29;100237.25;;;18.48;100.00
18145;BME280;14857;41.200;-8.326;2022-08-21T01:31:59;100253.28;;;18.64;100.00
18145;BME280;14857;41.200;-8.326;2022-08-21T01:34:31;100288.97;;;18.77;100.00
18145;BME280;14857;41.200;-8.326;2022-08-21T01:37:02;100294.13;;;18.79;100.00
18145;BME280;14857;41.200;-8.326;2022-08-21T01:39:32;100297.44;;;18.81;100.00
18145;BME280;14857;41.200;-8.326;2022-08-21T01:42:01;100245.91;;;18.50;100.00
18145;BME280;14857;41.200;-8.326;2022-08-21T01:44:30;100271.13;;;18.62;100.00
18145;BME280;14857;41.200;-8.326;2022-08-21T01:47:00;100240.88;;;18.47;100.00
18145;BME280;14857;41.200;-8.326;2022-08-21T01:49:29;100292.75;;;18.75;100.00
18145;BME280;14857;41.200;-8.326;2022-08-21T01:51:58;100296.69;;;18.71;100.00
18145;BME280;14857;41.200;-8.326;2022-08-21T01:54:29;100270.00;;;18.47;100.00
18145;BME280;14857;41.200;-8.326;2022-08-21T01:56:58;100251.34;;;18.30;100.00
18145;BME280;14857;41.200;-8.326;2022-08-21T01:59:27;100254.13;;;18.29;100.00
18145;BME280;14857;41.200;-8.326;2022-08-21T02:01:56;100273.88;;;18.34;100.00
18145;BME280;14857;41.200;-8.326;2022-08-21T02:04:25;100279.72;;;18.38;100.00
18145;BME280;14857;41.200;-8.326;2022-08-21T02:06:54;100312.19;;;18.58;100.00
18145;BME280;14857;41.200;-8.326;2022-08-21T02:09:22;100304.06;;;18.59;100.00
18145;BME280;14857;41.200;-8.326;2022-08-21T02:11:52;100290.78;;;18.51;100.00
18145;BME280;14857;41.200;-8.326;2022-08-21T02:14:21;100245.06;;;18.14;100.00
18145;BME280;14857;41.200;-8.326;2022-08-21T02:16:59;100270.72;;;18.31;100.00
18145;BME280;14857;41.200;-8.326;2022-08-21T02:19:36;100301.88;;;18.55;100.00
18145;BME280;14857;41.200;-8.326;2022-08-21T02:22:07;100255.88;;;18.20;100.00
18145;BME280;14857;41.200;-8.326;2022-08-21T02:24:36;100282.56;;;18.27;100.00
18145;BME280;14857;41.200;-8.326;2022-08-21T02:27:23;100258.47;;;18.12;100.00
18145;BME280;14857;41.200;-8.326;2022-08-21T02:29:55;100235.47;;;17.95;100.00
18145;BME280;14857;41.200;-8.326;2022-08-21T02:32:24;100256.41;;;18.06;100.00
18145;BME280;14857;41.200;-8.326;2022-08-21T02:34:53;100260.06;;;18.05;100.00
18145;BME280;14857;41.200;-8.326;2022-08-21T02:37:23;100253.31;;;17.93;100.00
18145;BME280;14857;41.200;-8.326;2022-08-21T02:39:52;100301.31;;;18.16;100.00
18145;BME280;14857;41.200;-8.326;2022-08-21T02:42:20;100281.66;;;18.01;100.00
18145;BME280;14857;41.200;-8.326;2022-08-21T02:44:50;100255.09;;;17.75;100.00
18145;BME280;14857;41.200;-8.326;2022-08-21T02:47:19;100274.75;;;17.90;100.00
18145;BME280;14857;41.200;-8.326;2022-08-21T02:49:48;100275.47;;;17.92;100.00
18145;BME280;14857;41.200;-8.326;2022-08-21T02:52:16;100289.59;;;18.01;100.00
18145;BME280;14857;41.200;-8.326;2022-08-21T02:54:45;100283.09;;;17.95;100.00
18145;BME280;14857;41.200;-8.326;2022-08-21T02:57:14;100270.00;;;17.94;100.00
18145;BME280;14857;41.200;-8.326;2022-08-21T02:59:42;100258.22;;;17.88;100.00
18145;BME280;14857;41.200;-8.326;2022-08-21T03:02:12;100271.69;;;17.95;100.00
18145;BME280;14857;41.200;-8.326;2022-08-21T03:04:41;100230.75;;;17.71;100.00
18145;BME280;14857;41.200;-8.326;2022-08-21T03:07:12;100277.81;;;17.95;100.00
18145;BME280;14857;41.200;-8.326;2022-08-21T03:09:42;100280.59;;;17.94;100.00
18145;BME280;14857;41.200;-8.326;2022-08-21T03:12:22;100279.53;;;17.87;100.00
18145;BME280;14857;41.200;-8.326;2022-08-21T03:14:53;100214.06;;;17.44;100.00
18145;BME280;14857;41.200;-8.326;2022-08-21T03:17:23;100281.66;;;17.83;100.00
18145;BME280;14857;41.200;-8.326;2022-08-21T03:19:56;100268.72;;;17.80;100.00
18145;BME280;14857;41.200;-8.326;2022-08-21T03:22:25;100247.28;;;17.56;100.00
18145;BME280;14857;41.200;-8.326;2022-08-21T03:24:57;100238.53;;;17.46;100.00
18145;BME280;14857;41.200;-8.326;2022-08-21T03:27:26;100265.59;;;17.67;100.00
18145;BME280;14857;41.200;-8.326;2022-08-21T03:29:56;100283.91;;;17.78;100.00
18145;BME280;14857;41.200;-8.326;2022-08-21T03:32:27;100285.88;;;17.76;100.00
18145;BME280;14857;41.200;-8.326;2022-08-21T03:34:56;100252.94;;;17.33;100.00
18145;BME280;14857;41.200;-8.326;2022-08-21T03:37:26;100251.19;;;17.24;100.00
18145;BME280;14857;41.200;-8.326;2022-08-21T03:39:55;100284.19;;;17.48;100.00
18145;BME280;14857;41.200;-8.326;2022-08-21T03:42:24;100249.91;;;17.28;100.00
18145;BME280;14857;41.200;-8.326;2022-08-21T03:44:53;100236.97;;;17.25;100.00
18145;BME280;14857;41.200;-8.326;2022-08-21T03:47:22;100283.59;;;17.54;100.00
18145;BME280;14857;41.200;-8.326;2022-08-21T03:49:52;100286.97;;;17.46;100.00
18145;BME280;14857;41.200;-8.326;2022-08-21T03:52:21;100243.38;;;17.23;100.00
18145;BME280;14857;41.200;-8.326;2022-08-21T03:54:50;100279.47;;;17.42;100.00
18145;BME280;14857;41.200;-8.326;2022-08-21T03:57:19;100249.94;;;17.19;100.00
18145;BME280;14857;41.200;-8.326;2022-08-21T03:59:48;100252.06;;;17.15;100.00
18145;BME280;14857;41.200;-8.326;2022-08-21T04:05:31;100261.53;;;17.08;100.00
18145;BME280;14857;41.200;-8.326;2022-08-21T04:08:02;100255.56;;;17.06;100.00
18145;BME280;14857;41.200;-8.326;2022-08-21T04:10:33;100248.91;;;17.02;100.00
18145;BME280;14857;41.200;-8.326;2022-08-21T04:13:02;100286.81;;;17.20;100.00
18145;BME280;14857;41.200;-8.326;2022-08-21T04:15:31;100245.47;;;16.92;100.00
18145;BME280;14857;41.200;-8.326;2022-08-21T04:18:00;100304.44;;;17.29;100.00
18145;BME280;14857;41.200;-8.326;2022-08-21T04:20:29;100304.13;;;17.32;100.00
18145;BME280;14857;41.200;-8.326;2022-08-21T04:22:59;100269.31;;;17.10;100.00
18145;BME280;14857;41.200;-8.326;2022-08-21T04:25:27;100282.69;;;17.08;100.00
18145;BME280;14857;41.200;-8.326;2022-08-21T04:27:56;100312.13;;;17.13;100.00
18145;BME280;14857;41.200;-8.326;2022-08-21T04:30:25;100259.41;;;16.75;100.00
18145;BME280;14857;41.200;-8.326;2022-08-21T04:32:56;100310.34;;;17.04;100.00
18145;BME280;14857;41.200;-8.326;2022-08-21T04:35:27;100244.13;;;16.69;100.00
18145;BME280;14857;41.200;-8.326;2022-08-21T04:37:56;100292.84;;;16.94;100.00
18145;BME280;14857;41.200;-8.326;2022-08-21T04:40:27;100314.38;;;17.08;100.00
18145;BME280;14857;41.200;-8.326;2022-08-21T04:43:01;100299.25;;;17.01;100.00
18145;BME280;14857;41.200;-8.326;2022-08-21T04:45:33;100317.41;;;17.13;100.00
18145;BME280;14857;41.200;-8.326;2022-08-21T04:48:04;100278.47;;;16.69;100.00
18145;BME280;14857;41.200;-8.326;2022-08-21T04:50:43;100304.47;;;16.64;100.00
18145;BME280;14857;41.200;-8.326;2022-08-21T04:53:18;100313.06;;;16.47;100.00
18145;BME280;14857;41.200;-8.326;2022-08-21T04:55:50;100226.38;;;15.75;100.00
18145;BME280;14857;41.200;-8.326;2022-08-21T04:58:21;100321.81;;;16.38;100.00
18145;BME280;14857;41.200;-8.326;2022-08-21T05:00:53;100284.03;;;16.08;100.00
18145;BME280;14857;41.200;-8.326;2022-08-21T05:03:22;100323.34;;;16.31;100.00
18145;BME280;14857;41.200;-8.326;2022-08-21T05:05:51;100284.16;;;16.16;100.00
18145;BME280;14857;41.200;-8.326;2022-08-21T05:08:23;100311.09;;;16.49;100.00
18145;BME280;14857;41.200;-8.326;2022-08-21T05:10:55;100293.34;;;16.41;100.00
18145;BME280;14857;41.200;-8.326;2022-08-21T05:13:27;100289.44;;;16.55;100.00
18145;BME280;14857;41.200;-8.326;2022-08-21T05:15:55;100243.34;;;16.30;100.00
18145;BME280;14857;41.200;-8.326;2022-08-21T05:18:25;100312.13;;;16.67;100.00
18145;BME280;14857;41.200;-8.326;2022-08-21T05:20:53;100294.44;;;16.58;100.00
18145;BME280;14857;41.200;-8.326;2022-08-21T05:23:22;100322.50;;;16.78;100.00
18145;BME280;14857;41.200;-8.326;2022-08-21T05:25:52;100325.03;;;16.70;100.00
18145;BME280;14857;41.200;-8.326;2022-08-21T05:28:23;100329.19;;;16.63;100.00
18145;BME280;14857;41.200;-8.326;2022-08-21T05:30:53;100330.31;;;16.70;100.00
18145;BME280;14857;41.200;-8.326;2022-08-21T05:33:21;100327.25;;;16.65;100.00
18145;BME280;14857;41.200;-8.326;2022-08-21T05:35:51;100280.41;;;16.28;100.00
18145;BME280;14857;41.200;-8.326;2022-08-21T05:38:20;100282.34;;;16.26;100.00
18145;BME280;14857;41.200;-8.326;2022-08-21T05:40:49;100335.03;;;16.57;100.00
18145;BME280;14857;41.200;-8.326;2022-08-21T05:43:18;100328.09;;;16.56;100.00
18145;BME280;14857;41.200;-8.326;2022-08-21T05:45:48;100320.84;;;16.58;100.00
18145;BME280;14857;41.200;-8.326;2022-08-21T05:48:19;100286.94;;;16.34;100.00
18145;BME280;14857;41.200;-8.326;2022-08-21T05:50:49;100350.88;;;16.76;100.00
18145;BME280;14857;41.200;-8.326;2022-08-21T05:53:20;100309.72;;;16.45;100.00
18145;BME280;14857;41.200;-8.326;2022-08-21T05:55:50;100341.44;;;16.64;100.00
18145;BME280;14857;41.200;-8.326;2022-08-21T05:58:20;100359.75;;;16.75;100.00
18145;BME280;14857;41.200;-8.326;2022-08-21T06:00:51;100344.06;;;16.64;100.00
18145;BME280;14857;41.200;-8.326;2022-08-21T06:03:24;100354.06;;;16.70;100.00
18145;BME280;14857;41.200;-8.326;2022-08-21T06:05:54;100310.69;;;16.44;100.00
18145;BME280;14857;41.200;-8.326;2022-08-21T06:08:23;100309.97;;;16.42;100.00
18145;BME280;14857;41.200;-8.326;2022-08-21T06:10:53;100362.28;;;16.76;100.00
18145;BME280;14857;41.200;-8.326;2022-08-21T06:13:23;100355.16;;;16.77;100.00
18145;BME280;14857;41.200;-8.326;2022-08-21T06:16:03;100326.84;;;16.69;100.00
18145;BME280;14857;41.200;-8.326;2022-08-21T06:18:33;100361.72;;;16.83;100.00
18145;BME280;14857;41.200;-8.326;2022-08-21T06:21:03;100361.97;;;16.89;100.00
18145;BME280;14857;41.200;-8.326;2022-08-21T06:23:32;100364.97;;;17.13;100.00
18145;BME280;14857;41.200;-8.326;2022-08-21T06:26:01;100335.75;;;17.24;100.00
18145;BME280;14857;41.200;-8.326;2022-08-21T06:28:30;100374.44;;;18.44;100.00
18145;BME280;14857;41.200;-8.326;2022-08-21T06:30:59;100373.81;;;19.88;100.00
18145;BME280;14857;41.200;-8.326;2022-08-21T06:33:29;100327.50;;;21.14;100.00
18145;BME280;14857;41.200;-8.326;2022-08-21T06:35:58;100365.63;;;22.62;100.00
18145;BME280;14857;41.200;-8.326;2022-08-21T06:38:28;100369.50;;;24.07;100.00
18145;BME280;14857;41.200;-8.326;2022-08-21T06:40:57;100348.94;;;24.86;100.00
18145;BME280;14857;41.200;-8.326;2022-08-21T06:43:30;100359.94;;;25.94;100.00
18145;BME280;14857;41.200;-8.326;2022-08-21T06:46:06;100339.13;;;24.50;100.00
18145;BME280;14857;41.200;-8.326;2022-08-21T06:48:36;100383.56;;;25.15;100.00
18145;BME280;14857;41.200;-8.326;2022-08-21T06:51:05;100380.81;;;25.64;100.00
18145;BME280;14857;41.200;-8.326;2022-08-21T06:53:34;100388.03;;;25.64;100.00
18145;BME280;14857;41.200;-8.326;2022-08-21T06:56:03;100347.53;;;27.58;94.82
18145;BME280;14857;41.200;-8.326;2022-08-21T06:58:32;100341.78;;;29.43;82.91
18145;BME280;14857;41.200;-8.326;2022-08-21T07:01:00;100342.09;;;29.71;77.99
18145;BME280;14857;41.200;-8.326;2022-08-21T07:03:31;100344.25;;;29.99;76.17
18145;BME280;14857;41.200;-8.326;2022-08-21T07:06:02;100368.09;;;30.50;73.99
18145;BME280;14857;41.200;-8.326;2022-08-21T07:08:31;100376.50;;;30.95;71.37
18145;BME280;14857;41.200;-8.326;2022-08-21T07:11:01;100365.41;;;31.14;69.73
18145;BME280;14857;41.200;-8.326;2022-08-21T07:13:30;100393.47;;;31.71;68.25
18145;BME280;14857;41.200;-8.326;2022-08-21T07:15:59;100396.13;;;32.06;66.68
18145;BME280;14857;41.200;-8.326;2022-08-21T07:18:30;100367.66;;;31.92;66.74
18145;BME280;14857;41.200;-8.326;2022-08-21T07:21:02;100388.50;;;32.60;65.06
18145;BME280;14857;41.200;-8.326;2022-08-21T07:23:33;100335.72;;;32.79;63.11
18145;BME280;14857;41.200;-8.326;2022-08-21T07:26:10;100346.06;;;32.82;63.54
18145;BME280;14857;41.200;-8.326;2022-08-21T07:28:39;100379.75;;;33.58;62.83
18145;BME280;14857;41.200;-8.326;2022-08-21T07:31:09;100387.75;;;33.64;62.74
18145;BME280;14857;41.200;-8.326;2022-08-21T07:33:40;100367.38;;;33.84;61.32
18145;BME280;14857;41.200;-8.326;2022-08-21T07:36:12;100399.06;;;34.00;60.31
18145;BME280;14857;41.200;-8.326;2022-08-21T07:38:41;100399.41;;;34.25;60.22
18145;BME280;14857;41.200;-8.326;2022-08-21T07:41:15;100391.19;;;35.42;57.37
18145;BME280;14857;41.200;-8.326;2022-08-21T07:43:44;100399.41;;;34.78;58.40
18145;BME280;14857;41.200;-8.326;2022-08-21T07:46:14;100393.34;;;34.71;57.87
18145;BME280;14857;41.200;-8.326;2022-08-21T07:48:43;100368.81;;;34.13;59.61
18145;BME280;14857;41.200;-8.326;2022-08-21T07:51:15;100391.28;;;35.57;55.83
18145;BME280;14857;41.200;-8.326;2022-08-21T07:53:48;100413.25;;;34.50;58.30
18145;BME280;14857;41.200;-8.326;2022-08-21T07:56:17;100409.78;;;35.13;56.44
18145;BME280;14857;41.200;-8.326;2022-08-21T07:58:46;100380.03;;;35.91;54.28
18145;BME280;14857;41.200;-8.326;2022-08-21T08:01:15;100401.75;;;34.43;56.06
18145;BME280;14857;41.200;-8.326;2022-08-21T08:03:44;100399.44;;;33.87;59.18
18145;BME280;14857;41.200;-8.326;2022-08-21T08:06:14;100372.81;;;34.86;56.17
18145;BME280;14857;41.200;-8.326;2022-08-21T08:08:45;100403.94;;;35.78;54.20
18145;BME280;14857;41.200;-8.326;2022-08-21T08:11:14;100422.81;;;37.28;51.04
18145;BME280;14857;41.200;-8.326;2022-08-21T08:13:45;100416.25;;;37.34;50.47
18145;BME280;14857;41.200;-8.326;2022-08-21T08:16:18;100392.56;;;37.09;49.64
18145;BME280;14857;41.200;-8.326;2022-08-21T08:18:49;100403.31;;;37.85;48.76
18145;BME280;14857;41.200;-8.326;2022-08-21T08:24:12;100369.09;;;39.14;45.79
18145;BME280;14857;41.200;-8.326;2022-08-21T08:26:46;100410.41;;;38.89;46.49
18145;BME280;14857;41.200;-8.326;2022-08-21T08:29:20;100376.03;;;39.35;44.81
18145;BME280;14857;41.200;-8.326;2022-08-21T08:31:49;100392.38;;;39.69;44.12
18145;BME280;14857;41.200;-8.326;2022-08-21T08:34:21;100397.72;;;39.32;44.75
18145;BME280;14857;41.200;-8.326;2022-08-21T08:36:54;100333.47;;;39.19;44.28
18145;BME280;14857;41.200;-8.326;2022-08-21T08:39:25;100357.31;;;40.09;43.07
18145;BME280;14857;41.200;-8.326;2022-08-21T08:41:59;100345.44;;;39.76;43.69
18145;BME280;14857;41.200;-8.326;2022-08-21T08:44:55;100394.09;;;40.82;42.50
18145;BME280;14857;41.200;-8.326;2022-08-21T08:50:45;100387.41;;;41.75;40.46
18145;BME280;14857;41.200;-8.326;2022-08-21T08:53:19;100336.47;;;41.42;40.33
18145;BME280;14857;41.200;-8.326;2022-08-21T08:55:53;100353.34;;;40.38;40.97
18145;BME280;14857;41.200;-8.326;2022-08-21T08:58:24;100382.19;;;41.06;40.90
18145;BME280;14857;41.200;-8.326;2022-08-21T09:00:56;100331.13;;;38.01;45.01
18145;BME280;14857;41.200;-8.326;2022-08-21T09:03:26;100353.13;;;39.50;43.91
18145;BME280;14857;41.200;-8.326;2022-08-21T09:06:08;100389.53;;;40.59;41.73
18145;BME280;14857;41.200;-8.326;2022-08-21T09:08:51;100352.25;;;41.77;39.49
18145;BME280;14857;41.200;-8.326;2022-08-21T09:11:28;100341.84;;;42.46;38.33
18145;BME280;14857;41.200;-8.326;2022-08-21T09:14:05;100353.56;;;42.29;38.42
18145;BME280;14857;41.200;-8.326;2022-08-21T09:16:41;100308.34;;;41.18;39.65
18145;BME280;14857;41.200;-8.326;2022-08-21T09:19:26;100374.69;;;40.60;40.38
18145;BME280;14857;41.200;-8.326;2022-08-21T09:22:03;100317.19;;;40.18;41.30
18145;BME280;14857;41.200;-8.326;2022-08-21T09:24:45;100362.50;;;39.92;42.13
18145;BME280;14857;41.200;-8.326;2022-08-21T09:27:19;100345.16;;;40.52;40.73
18145;BME280;14857;41.200;-8.326;2022-08-21T09:29:52;100338.59;;;42.22;38.55
18145;BME280;14857;41.200;-8.326;2022-08-21T09:32:27;100369.03;;;43.06;37.02
18145;BME280;14857;41.200;-8.326;2022-08-21T09:35:07;100318.06;;;43.34;36.70
18145;BME280;14857;41.200;-8.326;2022-08-21T09:37:47;100350.41;;;44.07;36.01
18145;BME280;14857;41.200;-8.326;2022-08-21T09:40:25;100300.09;;;42.66;36.13
18145;BME280;14857;41.200;-8.326;2022-08-21T09:43:00;100294.59;;;42.22;37.18
18145;BME280;14857;41.200;-8.326;2022-08-21T09:45:30;100346.91;;;43.28;35.92
18145;BME280;14857;41.200;-8.326;2022-08-21T09:48:14;100352.50;;;43.06;36.35
18145;BME280;14857;41.200;-8.326;2022-08-21T09:50:44;100349.47;;;43.55;35.43
18145;BME280;14857;41.200;-8.326;2022-08-21T09:53:18;100325.63;;;39.60;40.30
18145;BME280;14857;41.200;-8.326;2022-08-21T09:55:51;100348.53;;;40.81;39.22
18145;BME280;14857;41.200;-8.326;2022-08-21T09:58:40;100336.81;;;43.15;36.25
18145;BME280;14857;41.200;-8.326;2022-08-21T10:01:14;100356.28;;;43.58;35.51
18145;BME280;14857;41.200;-8.326;2022-08-21T10:03:44;100355.78;;;44.55;33.70
18145;BME280;14857;41.200;-8.326;2022-08-21T10:06:22;100317.00;;;42.82;35.63
18145;BME280;14857;41.200;-8.326;2022-08-21T10:09:04;100294.50;;;43.59;34.95
18145;BME280;14857;41.200;-8.326;2022-08-21T10:11:35;100351.38;;;44.71;33.21
18145;BME280;14857;41.200;-8.326;2022-08-21T10:14:14;100321.34;;;44.61;33.63
18145;BME280;14857;41.200;-8.326;2022-08-21T10:16:55;100312.00;;;45.00;32.75
18145;BME280;14857;41.200;-8.326;2022-08-21T10:19:33;100285.72;;;43.48;34.54
18145;BME280;14857;41.200;-8.326;2022-08-21T10:22:15;100348.72;;;43.72;34.85
18145;BME280;14857;41.200;-8.326;2022-08-21T10:24:56;100335.94;;;40.80;39.14
18145;BME280;14857;41.200;-8.326;2022-08-21T10:27:37;100310.28;;;41.31;37.98
18145;BME280;14857;41.200;-8.326;2022-08-21T10:30:09;100323.09;;;40.44;39.95
18145;BME280;14857;41.200;-8.326;2022-08-21T10:33:01;100271.94;;;42.03;36.89
18145;BME280;14857;41.200;-8.326;2022-08-21T10:35:40;100289.94;;;42.53;36.41
18145;BME280;14857;41.200;-8.326;2022-08-21T10:38:41;100333.94;;;43.76;35.29
18145;BME280;14857;41.200;-8.326;2022-08-21T10:41:44;100327.53;;;44.24;35.07
18145;BME280;14857;41.200;-8.326;2022-08-21T10:44:33;100329.06;;;43.25;35.52
18145;BME280;14857;41.200;-8.326;2022-08-21T10:47:13;100311.56;;;44.72;33.71
18145;BME280;14857;41.200;-8.326;2022-08-21T10:49:50;100287.03;;;42.27;35.77
18145;BME280;14857;41.200;-8.326;2022-08-21T10:52:34;100322.94;;;41.46;37.12
18145;BME280;14857;41.200;-8.326;2022-08-21T10:55:14;100300.41;;;42.43;36.02
18145;BME280;14857;41.200;-8.326;2022-08-21T10:57:56;100319.03;;;41.60;37.02
18145;BME280;14857;41.200;-8.326;2022-08-21T11:00:31;100274.28;;;39.90;40.33
18145;BME280;14857;41.200;-8.326;2022-08-21T11:03:04;100263.44;;;40.49;38.88
18145;BME280;14857;41.200;-8.326;2022-08-21T11:05:47;100307.84;;;42.42;36.26
18145;BME280;14857;41.200;-8.326;2022-08-21T11:08:21;100271.00;;;40.89;37.67
18145;BME280;14857;41.200;-8.326;2022-08-21T11:10:57;100256.28;;;38.31;41.19
18145;BME280;14857;41.200;-8.326;2022-08-21T11:13:37;100296.47;;;38.30;42.53
18145;BME280;14857;41.200;-8.326;2022-08-21T11:16:17;100272.28;;;39.76;39.65
18145;BME280;14857;41.200;-8.326;2022-08-21T11:19:19;100254.94;;;38.91;41.38
18145;BME280;14857;41.200;-8.326;2022-08-21T11:21:56;100268.91;;;39.13;38.78
18145;BME280;14857;41.200;-8.326;2022-08-21T11:24:32;100259.03;;;38.94;38.76
18145;BME280;14857;41.200;-8.326;2022-08-21T11:27:09;100292.53;;;39.33;38.79
18145;BME280;14857;41.200;-8.326;2022-08-21T11:29:51;100279.06;;;37.72;40.36
18145;BME280;14857;41.200;-8.326;2022-08-21T11:32:57;100282.66;;;39.79;36.32
18145;BME280;14857;41.200;-8.326;2022-08-21T11:35:34;100291.97;;;41.54;33.76
18145;BME280;14857;41.200;-8.326;2022-08-21T11:38:24;100242.88;;;42.10;32.30
18145;BME280;14857;41.200;-8.326;2022-08-21T11:41:04;100244.63;;;43.21;29.90
18145;BME280;14857;41.200;-8.326;2022-08-21T11:43:39;100274.22;;;43.63;29.15
18145;BME280;14857;41.200;-8.326;2022-08-21T11:46:25;100258.69;;;44.02;28.37
18145;BME280;14857;41.200;-8.326;2022-08-21T11:49:10;100265.66;;;43.73;28.10
18145;BME280;14857;41.200;-8.326;2022-08-21T11:51:48;100264.53;;;44.09;27.54
18145;BME280;14857;41.200;-8.326;2022-08-21T11:54:25;100284.03;;;43.86;27.44
18145;BME280;14857;41.200;-8.326;2022-08-21T11:57:00;100286.31;;;42.00;29.46
18145;BME280;14857;41.200;-8.326;2022-08-21T11:59:38;100272.13;;;41.43;29.59
18145;BME280;14857;41.200;-8.326;2022-08-21T12:02:12;100257.53;;;40.10;30.73
18145;BME280;14857;41.200;-8.326;2022-08-21T12:04:45;100256.09;;;38.85;31.81
18145;BME280;14857;41.200;-8.326;2022-08-21T12:07:17;100273.78;;;37.91;33.33
18145;BME280;14857;41.200;-8.326;2022-08-21T12:09:58;100236.53;;;36.72;34.59
18145;BME280;14857;41.200;-8.326;2022-08-21T12:12:29;100238.75;;;35.27;36.45
18145;BME280;14857;41.200;-8.326;2022-08-21T12:17:58;100190.50;;;34.23;37.09
18145;BME280;14857;41.200;-8.326;2022-08-21T12:20:40;100219.16;;;34.41;38.11
18145;BME280;14857;41.200;-8.326;2022-08-21T12:23:27;100201.25;;;33.87;38.89
18145;BME280;14857;41.200;-8.326;2022-08-21T12:26:11;100203.72;;;33.88;40.14
18145;BME280;14857;41.200;-8.326;2022-08-21T12:28:42;100190.88;;;33.30;40.14
18145;BME280;14857;41.200;-8.326;2022-08-21T12:31:22;100176.84;;;33.11;39.03
18145;BME280;14857;41.200;-8.326;2022-08-21T12:33:54;100191.34;;;32.84;40.52
18145;BME280;14857;41.200;-8.326;2022-08-21T12:36:52;100202.97;;;33.01;41.00
18145;BME280;14857;41.200;-8.326;2022-08-21T12:43:15;100246.00;;;33.36;39.89
18145;BME280;14857;41.200;-8.326;2022-08-21T12:45:54;100214.22;;;33.31;40.39
18145;BME280;14857;41.200;-8.326;2022-08-21T12:48:34;100199.41;;;33.17;39.95
18145;BME280;14857;41.200;-8.326;2022-08-21T12:51:08;100198.69;;;33.05;39.36
18145;BME280;14857;41.200;-8.326;2022-08-21T12:53:42;100224.94;;;33.21;41.50
18145;BME280;14857;41.200;-8.326;2022-08-21T12:59:31;100228.34;;;33.11;42.74
18145;BME280;14857;41.200;-8.326;2022-08-21T13:02:05;100197.13;;;33.31;42.27
18145;BME280;14857;41.200;-8.326;2022-08-21T13:04:40;100174.59;;;33.08;41.27
18145;BME280;14857;41.200;-8.326;2022-08-21T13:07:14;100188.09;;;33.25;42.57
18145;BME280;14857;41.200;-8.326;2022-08-21T13:09:49;100216.78;;;33.43;41.26
18145;BME280;14857;41.200;-8.326;2022-08-21T13:12:21;100198.59;;;33.00;42.27
18145;BME280;14857;41.200;-8.326;2022-08-21T13:15:00;100178.38;;;32.86;42.53
18145;BME280;14857;41.200;-8.326;2022-08-21T13:17:39;100205.38;;;33.19;42.86
18145;BME280;14857;41.200;-8.326;2022-08-21T13:20:18;100191.00;;;33.40;43.19
18145;BME280;14857;41.200;-8.326;2022-08-21T13:22:48;100182.84;;;32.97;44.33
18145;BME280;14857;41.200;-8.326;2022-08-21T13:25:26;100218.00;;;33.30;43.90
18145;BME280;14857;41.200;-8.326;2022-08-21T13:28:01;100183.69;;;33.19;44.29